Time;durP1;ratioP1;P1;durP2;ratioP2;P2;SDS_P1;SDS_P2;PMS_P1;PMS_P2;Temp;Humidity;BMP_temperature;BMP_pressure;BME280_temperature;BME280_humidity;BME280_pressure;Samples;Min_cycle;Max_cycle;Signal;HPM_P1;HPM_P2
2022/10/25 00:01:34;;;;;;;13.27;3.10;;;;;;;11.97;100.00;100988.22;5248613;28;20029;-69
2022/10/25 00:04:05;;;;;;;11.63;2.78;;;;;;;11.97;100.00;100996.25;5255362;28;20185;-69
2022/10/25 00:06:36;;;;;;;14.77;3.72;;;;;;;11.96;100.00;100989.19;5252439;28;20566;-69
2022/10/25 00:09:08;;;;;;;12.02;3.10;;;;;;;12.04;100.00;100988.56;5254636;28;20029;-69
2022/10/25 00:11:39;;;;;;;8.43;2.53;;;;;;;11.98;100.00;101005.13;5253859;28;20524;-69
2022/10/25 00:14:17;;;;;;;12.40;2.85;;;;;;;12.05;100.00;101006.34;5258741;28;20387;-69
2022/10/25 00:16:48;;;;;;;12.63;2.90;;;;;;;12.02;100.00;101002.06;5252375;28;20037;-69
2022/10/25 00:19:20;;;;;;;9.73;2.97;;;;;;;12.11;100.00;101008.50;5257393;28;20028;-69
2022/10/25 00:21:51;;;;;;;12.73;3.13;;;;;;;12.08;100.00;101006.06;5259142;28;20045;-69
2022/10/25 00:24:22;;;;;;;13.38;3.10;;;;;;;12.11;100.00;101003.16;5257207;28;20067;-69
2022/10/25 00:26:53;;;;;;;11.30;3.50;;;;;;;12.12;100.00;100999.53;5258636;28;20033;-69
2022/10/25 00:29:25;;;;;;;8.38;3.17;;;;;;;12.15;100.00;101009.97;5258270;28;20060;-70
2022/10/25 00:31:56;;;;;;;13.35;3.25;;;;;;;12.14;100.00;101017.16;5252529;28;20119;-69
2022/10/25 00:34:27;;;;;;;14.98;3.80;;;;;;;12.14;100.00;101016.31;5254428;28;20029;-69
2022/10/25 00:36:59;;;;;;;8.88;3.28;;;;;;;12.21;100.00;101012.13;5258021;28;20042;-69
2022/10/25 00:39:30;;;;;;;14.38;3.35;;;;;;;12.18;100.00;101012.41;5255879;28;20364;-69
2022/10/25 00:42:01;;;;;;;12.73;3.30;;;;;;;12.23;100.00;101017.38;5241104;28;20383;-69
2022/10/25 00:44:38;;;;;;;10.27;3.40;;;;;;;12.28;100.00;101013.34;5250843;28;20525;-69
2022/10/25 00:47:18;;;;;;;13.95;2.88;;;;;;;12.32;100.00;101014.78;5250896;28;20167;-70
2022/10/25 00:50:12;;;;;;;9.70;2.45;;;;;;;12.28;100.00;101008.00;5256813;28;20079;-69
2022/10/25 00:52:47;;;;;;;10.88;2.75;;;;;;;12.28;100.00;101020.53;5251080;28;20036;-69
2022/10/25 00:55:23;;;;;;;8.75;2.40;;;;;;;12.28;100.00;101021.38;5257160;28;20017;-70
2022/10/25 00:58:16;;;;;;;12.57;2.50;;;;;;;12.30;100.00;101024.78;5250884;28;20347;-69
2022/10/25 01:00:48;;;;;;;11.85;2.63;;;;;;;12.25;100.00;101013.59;5246039;28;20036;-69
2022/10/25 01:03:22;;;;;;;9.93;3.17;;;;;;;12.23;100.00;101012.88;5256716;28;20344;-69
2022/10/25 01:05:55;;;;;;;12.77;3.22;;;;;;;12.21;100.00;101013.97;5257886;28;20031;-69
2022/10/25 01:08:26;;;;;;;10.70;2.85;;;;;;;12.23;100.00;101018.22;5256885;28;20021;-69
2022/10/25 01:10:58;;;;;;;11.30;2.80;;;;;;;12.18;100.00;101014.22;5248843;28;20040;-69
2022/10/25 01:13:29;;;;;;;14.85;3.15;;;;;;;12.17;100.00;101024.06;5256098;28;20474;-69
2022/10/25 01:16:22;;;;;;;11.02;2.97;;;;;;;12.19;100.00;101038.16;5254109;28;20509;-69
2022/10/25 01:19:11;;;;;;;11.52;3.20;;;;;;;12.13;100.00;101034.16;5254750;28;20597;-68
2022/10/25 01:22:17;;;;;;;14.88;2.40;;;;;;;12.12;100.00;101032.47;5252209;28;20036;-69
2022/10/25 01:25:26;;;;;;;10.10;2.55;;;;;;;12.19;100.00;101040.84;5254396;28;20040;-70
2022/10/25 01:28:19;;;;;;;10.32;2.22;;;;;;;12.15;100.00;101039.38;5256917;28;20029;-70
2022/10/25 01:31:12;;;;;;;9.57;2.60;;;;;;;12.15;100.00;101036.72;5248567;28;20025;-70
2022/10/25 01:33:52;;;;;;;13.27;3.08;;;;;;;12.21;100.00;101041.56;5249984;28;20025;-70
2022/10/25 01:36:51;;;;;;;12.38;2.58;;;;;;;12.24;100.00;101045.84;5255833;28;20021;-69
2022/10/25 01:39:38;;;;;;;13.15;2.50;;;;;;;12.22;100.00;101051.31;5249961;28;20065;-69
2022/10/25 01:42:28;;;;;;;12.30;2.33;;;;;;;12.24;100.00;101052.03;5252143;28;20104;-69
2022/10/25 01:45:09;;;;;;;9.30;2.30;;;;;;;12.26;100.00;101049.25;5255940;28;20035;-70
2022/10/25 01:47:53;;;;;;;9.25;2.38;;;;;;;12.20;100.00;101045.22;5252850;28;20478;-70
2022/10/25 01:50:31;;;;;;;9.03;2.60;;;;;;;12.22;100.00;101042.44;5255833;28;20061;-70
2022/10/25 01:53:03;;;;;;;9.60;2.30;;;;;;;12.22;100.00;101048.63;5256434;28;20295;-69
2022/10/25 01:55:40;;;;;;;11.82;2.40;;;;;;;12.24;100.00;101054.72;5251463;28;20211;-69
2022/10/25 01:58:34;;;;;;;11.80;2.83;;;;;;;12.24;100.00;101049.34;5250108;28;20036;-69
2022/10/25 02:01:38;;;;;;;12.70;2.25;;;;;;;12.26;100.00;101050.09;5247823;28;20029;-70
2022/10/25 02:04:21;;;;;;;13.63;2.38;;;;;;;12.25;100.00;101053.72;5255845;28;20124;-70
2022/10/25 02:07:22;;;;;;;9.40;2.58;;;;;;;12.21;100.00;101054.09;5252426;28;20049;-70
2022/10/25 02:10:07;;;;;;;10.15;1.90;;;;;;;12.21;100.00;101060.28;5256207;28;20096;-70
2022/10/25 02:13:01;;;;;;;;;;;;;;;12.22;100.00;101069.19;5256896;28;20021;-69
2022/10/25 02:15:39;;;;;;;10.25;2.70;;;;;;;12.19;100.00;101059.56;5244028;28;20007;-70
2022/10/25 02:18:19;;;;;;;15.02;3.03;;;;;;;12.18;100.00;101071.25;5256227;28;20086;-70
2022/10/25 02:20:52;;;;;;;9.80;2.40;;;;;;;12.24;100.00;101065.41;5246997;28;20041;-70
2022/10/25 02:23:25;;;;;;;10.53;2.53;;;;;;;12.25;100.00;101069.75;5243503;28;20117;-70
2022/10/25 02:25:58;;;;;;;12.93;2.67;;;;;;;12.19;100.00;101066.75;5254790;28;20353;-70
2022/10/25 02:28:31;;;;;;;7.97;2.35;;;;;;;12.16;100.00;101067.84;5255611;28;20033;-70
2022/10/25 02:31:05;;;;;;;10.30;2.40;;;;;;;12.14;100.00;101062.63;5255023;28;20036;-70
2022/10/25 02:33:37;;;;;;;12.77;2.72;;;;;;;12.11;100.00;101068.19;5255957;28;20078;-70
2022/10/25 02:36:15;;;;;;;9.02;2.45;;;;;;;12.10;100.00;101061.16;5245814;28;20033;-66
2022/10/25 02:38:49;;;;;;;9.88;2.50;;;;;;;12.08;100.00;101076.50;5252801;28;20475;-68
2022/10/25 02:41:21;;;;;;;9.30;2.88;;;;;;;12.06;100.00;101069.53;5248317;28;20074;-70
2022/10/25 02:43:52;;;;;;;10.38;3.03;;;;;;;12.06;100.00;101072.22;5248852;28;20029;-70
2022/10/25 02:46:24;;;;;;;8.05;2.75;;;;;;;12.04;100.00;101068.81;5238833;28;20095;-69
2022/10/25 02:48:55;;;;;;;13.25;2.88;;;;;;;12.06;100.00;101080.22;5251256;28;20029;-65
2022/10/25 02:51:26;;;;;;;10.80;2.95;;;;;;;12.03;100.00;101075.16;5248116;28;20059;-65
2022/10/25 02:53:58;;;;;;;8.57;2.42;;;;;;;12.01;100.00;101077.09;5254989;28;20479;-65
2022/10/25 02:56:29;;;;;;;7.60;2.58;;;;;;;12.03;100.00;101075.16;5244347;28;20575;-65
2022/10/25 02:59:00;;;;;;;10.30;2.63;;;;;;;12.03;100.00;101084.00;5255563;28;20104;-65
2022/10/25 03:01:32;;;;;;;9.60;2.70;;;;;;;12.06;100.00;101085.59;5255355;28;20070;-65
2022/10/25 03:04:03;;;;;;;10.77;3.22;;;;;;;12.03;100.00;101080.50;5256021;28;20024;-65
2022/10/25 03:06:34;;;;;;;12.38;3.35;;;;;;;12.06;100.00;101083.78;5252254;28;20437;-65
2022/10/25 03:09:06;;;;;;;16.85;2.60;;;;;;;12.00;100.00;101070.03;5255773;28;20094;-64
2022/10/25 03:11:37;;;;;;;11.27;2.67;;;;;;;12.06;100.00;101090.94;5256169;28;20033;-64
2022/10/25 03:14:08;;;;;;;8.85;2.67;;;;;;;11.98;100.00;101093.38;5253669;28;20047;-65
2022/10/25 03:16:39;;;;;;;9.43;2.33;;;;;;;11.98;100.00;101094.22;5254138;28;20487;-65
2022/10/25 03:19:11;;;;;;;13.27;3.20;;;;;;;12.01;100.00;101095.81;5255268;28;20025;-65
2022/10/25 03:21:42;;;;;;;7.55;2.15;;;;;;;12.00;100.00;101094.09;5248127;28;20444;-65
2022/10/25 03:24:14;;;;;;;12.40;3.20;;;;;;;12.00;100.00;101102.13;5255012;28;20031;-65
2022/10/25 03:26:45;;;;;;;8.13;2.60;;;;;;;11.92;100.00;101110.75;5260098;28;20028;-65
2022/10/25 03:29:16;;;;;;;6.68;2.78;;;;;;;11.88;100.00;101106.56;5256503;28;20178;-65
2022/10/25 03:31:48;;;;;;;8.88;2.60;;;;;;;11.87;100.00;101113.75;5260020;28;20518;-65
2022/10/25 03:34:19;;;;;;;9.43;2.80;;;;;;;11.83;100.00;101125.66;5258215;28;20029;-65
2022/10/25 03:36:51;;;;;;;11.32;2.88;;;;;;;11.84;100.00;101129.19;5259214;28;20486;-65
2022/10/25 03:39:22;;;;;;;7.97;2.38;;;;;;;11.81;100.00;101121.38;5258250;28;20402;-65
2022/10/25 03:41:53;;;;;;;7.95;2.40;;;;;;;11.75;100.00;101133.41;5258063;28;20033;-65
2022/10/25 03:44:25;;;;;;;10.55;2.47;;;;;;;11.78;100.00;101138.53;5254819;28;20032;-65
2022/10/25 03:46:56;;;;;;;9.10;3.00;;;;;;;11.73;100.00;101140.69;5257058;28;20040;-65
2022/10/25 03:49:27;;;;;;;9.82;2.70;;;;;;;11.73;100.00;101140.69;5257267;28;20029;-65
2022/10/25 03:51:58;;;;;;;7.93;2.17;;;;;;;11.72;100.00;101139.00;5258955;28;20037;-65
2022/10/25 03:54:30;;;;;;;8.93;2.90;;;;;;;11.75;100.00;101141.41;5257884;28;20028;-65
2022/10/25 03:57:01;;;;;;;8.35;2.75;;;;;;;11.72;100.00;101144.34;5258024;28;20028;-65
2022/10/25 03:59:33;;;;;;;7.40;2.47;;;;;;;11.66;100.00;101142.13;5259196;28;20029;-65
2022/10/25 04:02:04;;;;;;;9.07;2.67;;;;;;;11.65;100.00;101149.28;5258524;28;20025;-65
2022/10/25 04:04:35;;;;;;;8.10;2.88;;;;;;;11.62;100.00;101154.00;5258583;28;20039;-65
2022/10/25 04:07:07;;;;;;;6.55;2.40;;;;;;;11.61;100.00;101161.19;5258120;28;20021;-65
2022/10/25 04:09:38;;;;;;;12.18;3.35;;;;;;;11.68;100.00;101153.56;5252852;28;20737;-65
2022/10/25 04:12:10;;;;;;;8.55;2.75;;;;;;;11.70;100.00;101155.16;5258152;28;20060;-65
2022/10/25 04:14:41;;;;;;;9.30;2.70;;;;;;;11.69;100.00;101152.59;5251412;28;20021;-66
2022/10/25 04:17:12;;;;;;;9.30;2.92;;;;;;;11.71;100.00;101148.81;5242095;28;20025;-65
2022/10/25 04:19:43;;;;;;;9.68;2.83;;;;;;;11.65;100.00;101146.63;5252023;28;20021;-65
2022/10/25 04:22:15;;;;;;;11.18;3.15;;;;;;;11.62;100.00;101149.53;5249209;28;20314;-65
2022/10/25 04:24:46;;;;;;;10.15;3.00;;;;;;;11.62;100.00;101157.56;5258131;28;20458;-65
2022/10/25 04:27:17;;;;;;;9.88;3.28;;;;;;;11.59;100.00;101157.78;5258374;28;20048;-65
2022/10/25 04:29:48;;;;;;;8.75;3.28;;;;;;;11.58;100.00;101161.41;5257185;28;20029;-65
2022/10/25 04:32:20;;;;;;;10.68;3.38;;;;;;;11.56;100.00;101166.91;5256866;28;20031;-65
2022/10/25 04:34:51;;;;;;;10.05;3.28;;;;;;;11.56;100.00;101174.03;5257010;28;20020;-65
2022/10/25 04:37:22;;;;;;;7.88;3.17;;;;;;;11.56;100.00;101160.69;5249266;28;20028;-64
2022/10/25 04:39:53;;;;;;;10.32;3.20;;;;;;;11.54;100.00;101163.50;5253552;28;20083;-64
2022/10/25 04:42:25;;;;;;;10.13;3.50;;;;;;;11.51;100.00;101162.88;5252761;28;20023;-64
2022/10/25 04:44:56;;;;;;;9.90;3.70;;;;;;;11.51;100.00;101171.72;5254820;28;20102;-65
2022/10/25 04:47:32;;;;;;;8.93;3.08;;;;;;;11.45;100.00;101156.16;5251501;28;20076;-65
2022/10/25 04:50:04;;;;;;;10.07;3.88;;;;;;;11.46;100.00;101163.19;5243434;28;20072;-65
2022/10/25 04:52:35;;;;;;;9.60;3.70;;;;;;;11.46;100.00;101168.53;5248113;28;20025;-65
2022/10/25 04:55:07;;;;;;;11.15;3.75;;;;;;;11.47;100.00;101166.75;5256255;28;20017;-65
2022/10/25 04:57:38;;;;;;;9.00;3.70;;;;;;;11.45;100.00;101171.31;5249405;28;20102;-65
2022/10/25 05:00:10;;;;;;;11.10;3.92;;;;;;;11.44;100.00;101175.81;5253873;28;20025;-64
2022/10/25 05:02:41;;;;;;;9.35;4.13;;;;;;;11.44;100.00;101170.47;5258011;28;20025;-66
2022/10/25 05:05:13;;;;;;;9.27;3.72;;;;;;;11.41;100.00;101173.38;5252724;28;20017;-65
2022/10/25 05:07:44;;;;;;;12.25;4.07;;;;;;;11.40;100.00;101174.34;5257402;28;20527;-65
2022/10/25 05:10:16;;;;;;;9.20;3.50;;;;;;;11.45;100.00;101177.53;5256366;28;20071;-65
2022/10/25 05:12:49;;;;;;;7.68;3.50;;;;;;;11.37;100.00;101179.91;5251380;28;20570;-64
2022/10/25 05:15:21;;;;;;;10.07;3.80;;;;;;;11.37;100.00;101188.78;5256825;28;20032;-65
2022/10/25 05:17:56;;;;;;;11.77;4.38;;;;;;;11.44;100.00;101194.53;5245541;28;20032;-65
2022/10/25 05:20:28;;;;;;;9.65;3.83;;;;;;;11.39;100.00;101194.03;5254012;28;20100;-66
2022/10/25 05:22:59;;;;;;;8.85;3.78;;;;;;;11.33;100.00;101192.66;5250397;28;20551;-66
2022/10/25 05:25:30;;;;;;;8.00;3.90;;;;;;;11.37;100.00;101195.94;5257142;28;20737;-64
2022/10/25 05:28:01;;;;;;;14.38;3.90;;;;;;;11.35;100.00;101195.19;5256730;28;20409;-64
2022/10/25 05:30:33;;;;;;;10.90;4.10;;;;;;;11.33;100.00;101191.78;5257717;28;20017;-64
2022/10/25 05:33:04;;;;;;;13.27;3.92;;;;;;;11.37;100.00;101198.59;5256002;28;20721;-64
2022/10/25 05:35:35;;;;;;;11.30;3.50;;;;;;;11.37;100.00;101203.94;5256053;28;20065;-63
2022/10/25 05:38:07;;;;;;;10.68;3.58;;;;;;;11.32;100.00;101200.78;5257197;28;20078;-64
2022/10/25 05:40:38;;;;;;;11.57;3.70;;;;;;;11.33;100.00;101206.03;5252632;28;20124;-64
2022/10/25 05:43:09;;;;;;;9.18;3.60;;;;;;;11.28;100.00;101208.16;5234000;28;20039;-64
2022/10/25 05:45:40;;;;;;;9.45;3.72;;;;;;;11.30;100.00;101216.06;5256465;28;20028;-64
2022/10/25 05:48:12;;;;;;;11.57;3.53;;;;;;;11.24;100.00;101216.50;5255127;28;20130;-63
2022/10/25 05:50:44;;;;;;;11.32;4.00;;;;;;;11.25;100.00;101218.22;5251355;28;20076;-65
2022/10/25 05:53:15;;;;;;;9.43;4.20;;;;;;;11.21;100.00;101225.59;5251282;28;20071;-65
2022/10/25 05:55:47;;;;;;;15.77;4.50;;;;;;;11.26;100.00;101219.94;5256231;28;20530;-65
2022/10/25 05:58:18;;;;;;;11.95;4.13;;;;;;;11.26;100.00;101230.63;5255597;28;20040;-65
2022/10/25 06:00:49;;;;;;;11.75;4.68;;;;;;;11.23;100.00;101230.84;5257501;28;20042;-64
2022/10/25 06:03:20;;;;;;;12.73;4.65;;;;;;;11.22;100.00;101229.13;5254580;28;20037;-65
2022/10/25 06:05:52;;;;;;;9.77;5.20;;;;;;;11.24;100.00;101241.41;5247150;28;20033;-65
2022/10/25 06:08:23;;;;;;;10.98;4.60;;;;;;;11.26;100.00;101239.47;5250898;28;20057;-64
2022/10/25 06:10:54;;;;;;;13.90;5.35;;;;;;;11.24;100.00;101241.41;5250355;28;20029;-65
2022/10/25 06:13:26;;;;;;;13.13;5.50;;;;;;;11.27;100.00;101243.84;5255940;28;20021;-65
2022/10/25 06:15:57;;;;;;;11.45;5.70;;;;;;;11.26;100.00;101250.16;5257009;28;20025;-64
2022/10/25 06:18:29;;;;;;;13.10;5.80;;;;;;;11.30;100.00;101250.81;5255557;28;20025;-65
2022/10/25 06:21:05;;;;;;;13.32;5.72;;;;;;;11.32;100.00;101248.88;5245063;28;20032;-64
2022/10/25 06:23:37;;;;;;;14.25;6.40;;;;;;;11.29;100.00;101255.28;5252046;28;20407;-65
2022/10/25 06:26:13;;;;;;;14.10;5.97;;;;;;;11.30;100.00;101257.00;5256581;28;20029;-65
2022/10/25 06:28:45;;;;;;;12.30;6.53;;;;;;;11.29;100.00;101262.44;5256646;28;20039;-65
2022/10/25 06:31:17;;;;;;;13.48;6.72;;;;;;;11.32;100.00;101268.41;5254457;28;20041;-65
2022/10/25 06:33:49;;;;;;;13.50;6.45;;;;;;;11.32;100.00;101272.91;5251582;28;20029;-65
2022/10/25 06:36:22;;;;;;;12.73;6.78;;;;;;;11.38;100.00;101273.31;5252513;28;20032;-64
2022/10/25 06:38:54;;;;;;;14.50;6.85;;;;;;;11.34;100.00;101273.66;5248453;28;20029;-65
2022/10/25 06:41:27;;;;;;;17.60;8.07;;;;;;;11.33;100.00;101274.59;5256340;28;20021;-65
2022/10/25 06:43:58;;;;;;;13.55;6.90;;;;;;;11.39;100.00;101279.53;5255649;28;20037;-64
2022/10/25 06:46:32;;;;;;;15.55;6.80;;;;;;;11.36;100.00;101269.06;5244820;28;20051;-64
2022/10/25 06:49:06;;;;;;;13.33;6.37;;;;;;;11.37;100.00;101276.97;5256739;28;20021;-65
2022/10/25 06:51:37;;;;;;;12.43;6.40;;;;;;;11.43;100.00;101282.78;5244574;28;20291;-64
2022/10/25 06:54:08;;;;;;;16.30;6.90;;;;;;;11.38;100.00;101283.16;5256241;28;20398;-65
2022/10/25 06:56:40;;;;;;;13.90;7.00;;;;;;;11.41;100.00;101288.28;5257595;28;20513;-64
2022/10/25 06:59:11;;;;;;;15.05;7.18;;;;;;;11.38;100.00;101294.69;5243829;28;20065;-64
2022/10/25 07:01:42;;;;;;;16.73;6.93;;;;;;;11.43;100.00;101299.69;5253466;28;20025;-65
2022/10/25 07:04:13;;;;;;;13.98;6.75;;;;;;;11.42;100.00;101297.97;5260640;28;20035;-64
2022/10/25 07:06:45;;;;;;;19.00;6.93;;;;;;;11.43;100.00;101291.69;5250368;28;20028;-64
2022/10/25 07:09:16;;;;;;;16.80;7.05;;;;;;;11.44;100.00;101298.72;5256920;28;20108;-65
2022/10/25 07:11:47;;;;;;;16.50;6.80;;;;;;;11.43;100.00;101310.38;5259985;28;20471;-64
2022/10/25 07:14:19;;;;;;;15.85;7.50;;;;;;;11.45;100.00;101307.59;5259664;28;20047;-64
2022/10/25 07:16:50;;;;;;;13.85;6.85;;;;;;;11.46;100.00;101309.31;5256717;28;20037;-65
2022/10/25 07:19:23;;;;;;;18.00;7.82;;;;;;;11.53;100.00;101310.56;5255127;28;20052;-64
2022/10/25 07:21:54;;;;;;;13.98;7.85;;;;;;;11.70;100.00;101317.34;5256350;28;20029;-64
2022/10/25 07:24:25;;;;;;;14.90;7.45;;;;;;;11.73;100.00;101317.13;5246214;28;20480;-65
2022/10/25 07:26:57;;;;;;;17.70;7.78;;;;;;;11.71;100.00;101319.88;5256869;28;20061;-66
2022/10/25 07:29:28;;;;;;;14.65;6.90;;;;;;;11.73;100.00;101325.13;5251383;28;20029;-65
2022/10/25 07:31:59;;;;;;;19.17;7.78;;;;;;;11.76;100.00;101323.09;5257926;28;20029;-64
2022/10/25 07:34:31;;;;;;;14.65;7.75;;;;;;;11.93;100.00;101334.41;5246006;28;20017;-65
2022/10/25 07:37:02;;;;;;;18.35;8.27;;;;;;;11.85;100.00;101332.25;5258434;28;20032;-65
2022/10/25 07:39:33;;;;;;;16.05;7.45;;;;;;;11.91;100.00;101342.53;5251316;28;20057;-65
2022/10/25 07:42:05;;;;;;;19.27;6.82;;;;;;;11.93;100.00;101337.91;5259124;28;20028;-64
2022/10/25 07:44:36;;;;;;;17.83;7.47;;;;;;;11.98;100.00;101344.75;5253517;28;20065;-65
2022/10/25 07:47:07;;;;;;;16.15;7.25;;;;;;;11.99;100.00;101341.97;5250823;28;20198;-64
2022/10/25 07:49:38;;;;;;;19.45;7.70;;;;;;;12.03;100.00;101334.56;5256223;28;20041;-64
2022/10/25 07:52:10;;;;;;;13.95;7.47;;;;;;;12.05;100.00;101343.31;5256293;28;20033;-65
2022/10/25 07:54:41;;;;;;;18.08;7.47;;;;;;;12.09;100.00;101336.78;5249058;28;20467;-65
2022/10/25 07:57:12;;;;;;;14.77;8.00;;;;;;;12.13;100.00;101351.63;5258206;28;20021;-64
2022/10/25 07:59:44;;;;;;;13.43;7.90;;;;;;;12.20;100.00;101355.56;5257680;28;20029;-65
2022/10/25 08:02:15;;;;;;;14.45;7.07;;;;;;;12.23;100.00;101352.63;5254135;28;20476;-64
2022/10/25 08:04:46;;;;;;;13.85;7.57;;;;;;;12.22;100.00;101353.59;5252777;28;20029;-65
2022/10/25 08:07:18;;;;;;;16.40;8.10;;;;;;;12.19;100.00;101352.97;5257907;28;20040;-64
2022/10/25 08:09:49;;;;;;;15.00;8.05;;;;;;;12.32;100.00;101359.97;5258246;28;20021;-65
2022/10/25 08:12:20;;;;;;;15.40;7.47;;;;;;;12.32;100.00;101367.13;5247275;28;20084;-65
2022/10/25 08:14:52;;;;;;;15.20;7.75;;;;;;;12.33;100.00;101363.47;5259471;28;20040;-64
2022/10/25 08:17:23;;;;;;;12.60;7.20;;;;;;;12.49;100.00;101372.06;5255321;28;20029;-64
2022/10/25 08:19:55;;;;;;;14.98;7.53;;;;;;;12.44;100.00;101365.34;5252529;28;20371;-65
2022/10/25 08:22:26;;;;;;;13.35;7.63;;;;;;;12.48;100.00;101364.16;5258826;28;20028;-65
2022/10/25 08:24:58;;;;;;;15.50;7.25;;;;;;;12.48;100.00;101366.81;5253125;28;20025;-64
2022/10/25 08:27:30;;;;;;;15.80;7.78;;;;;;;12.50;100.00;101371.09;5247343;28;20035;-65
2022/10/25 08:30:01;;;;;;;15.20;7.90;;;;;;;12.56;100.00;101375.16;5250478;28;20028;-64
2022/10/25 08:32:36;;;;;;;12.80;7.07;;;;;;;12.66;100.00;101373.44;5258489;28;20047;-65
2022/10/25 08:35:07;;;;;;;14.38;6.63;;;;;;;12.68;100.00;101368.84;5256832;28;20372;-64
2022/10/25 08:37:39;;;;;;;14.35;7.22;;;;;;;12.72;100.00;101377.47;5253070;28;20032;-65
2022/10/25 08:40:19;;;;;;;14.68;7.28;;;;;;;12.80;100.00;101380.41;5257813;28;20029;-64
2022/10/25 08:43:06;;;;;;;18.75;7.75;;;;;;;12.84;100.00;101381.03;5257124;28;20112;-65
2022/10/25 08:45:46;;;;;;;13.23;6.68;;;;;;;12.85;100.00;101380.06;5257898;28;20028;-68
2022/10/25 08:48:21;;;;;;;14.63;7.60;;;;;;;12.93;100.00;101380.31;5258503;28;20036;-65
2022/10/25 08:50:57;;;;;;;12.85;5.93;;;;;;;12.92;100.00;101384.84;5254798;28;20095;-65
2022/10/25 08:53:38;;;;;;;11.38;6.22;;;;;;;12.97;100.00;101378.25;5252702;28;20035;-65
2022/10/25 08:56:15;;;;;;;12.65;6.80;;;;;;;12.94;100.00;101387.38;5249608;28;20541;-65
2022/10/25 08:58:57;;;;;;;14.25;6.43;;;;;;;12.93;100.00;101386.53;5257410;28;20359;-64
2022/10/25 09:01:35;;;;;;;14.55;6.07;;;;;;;12.96;100.00;101388.09;5255096;28;20025;-65
2022/10/25 09:04:07;;;;;;;17.58;6.30;;;;;;;12.95;100.00;101389.09;5257486;28;20035;-65
2022/10/25 09:07:03;;;;;;;14.90;6.88;;;;;;;12.99;100.00;101390.56;5251821;28;20087;-65
2022/10/25 09:09:54;;;;;;;13.60;6.57;;;;;;;12.99;100.00;101389.72;5251500;28;20129;-65
2022/10/25 09:12:29;;;;;;;15.13;6.60;;;;;;;13.06;100.00;101397.16;5256861;28;20025;-65
2022/10/25 09:15:14;;;;;;;13.02;6.88;;;;;;;13.12;100.00;101407.38;5258278;28;20043;-65
2022/10/25 09:17:50;;;;;;;14.65;7.35;;;;;;;13.23;100.00;101403.88;5257209;28;20024;-64
2022/10/25 09:20:40;;;;;;;16.02;6.53;;;;;;;13.29;100.00;101416.78;5253383;28;20391;-65
2022/10/25 09:23:14;;;;;;;13.75;5.95;;;;;;;13.28;100.00;101412.38;5243246;28;20017;-64
2022/10/25 09:25:57;;;;;;;;;;;;;;;13.35;100.00;101423.50;5257344;28;20029;-65
2022/10/25 09:29:01;;;;;;;14.73;6.13;;;;;;;13.45;100.00;101423.63;5257707;28;20354;-65
2022/10/25 09:31:40;;;;;;;11.45;5.70;;;;;;;13.49;100.00;101417.03;5256419;28;20536;-65
2022/10/25 09:34:15;;;;;;;11.70;5.18;;;;;;;13.57;100.00;101422.63;5252683;28;20371;-66
2022/10/25 09:36:50;;;;;;;11.90;5.00;;;;;;;13.57;100.00;101425.31;5256552;28;20435;-65
2022/10/25 09:39:39;;;;;;;13.52;5.18;;;;;;;13.57;100.00;101429.84;5255105;28;20056;-65
2022/10/25 09:42:20;;;;;;;9.60;4.65;;;;;;;13.57;100.00;101433.38;5249793;28;20502;-65
2022/10/25 09:45:00;;;;;;;12.32;4.97;;;;;;;13.65;100.00;101425.59;5250676;28;20036;-65
2022/10/25 09:47:56;;;;;;;8.65;4.70;;;;;;;13.66;100.00;101431.78;5252880;28;20378;-65
2022/10/25 09:50:34;;;;;;;9.70;4.50;;;;;;;13.67;100.00;101430.78;5247877;28;20056;-65
2022/10/25 09:53:13;;;;;;;8.15;4.13;;;;;;;13.70;100.00;101427.88;5253727;28;20057;-65
2022/10/25 09:55:49;;;;;;;12.25;4.70;;;;;;;13.75;100.00;101436.41;5243289;28;20033;-65
2022/10/25 09:58:30;;;;;;;13.93;4.97;;;;;;;13.74;100.00;101432.03;5243222;28;20021;-65
2022/10/25 10:01:06;;;;;;;12.35;4.20;;;;;;;13.82;100.00;101436.75;5256228;28;20043;-65
2022/10/25 10:03:37;;;;;;;8.85;3.50;;;;;;;13.78;100.00;101438.00;5251441;28;20372;-65
2022/10/25 10:06:36;;;;;;;10.63;3.47;;;;;;;13.81;100.00;101441.28;5256797;28;20078;-65
2022/10/25 10:09:12;;;;;;;10.65;3.70;;;;;;;13.87;100.00;101442.63;5247834;28;20089;-65
2022/10/25 10:11:46;;;;;;;10.68;3.60;;;;;;;13.88;100.00;101439.81;5253971;28;20433;-65
2022/10/25 10:14:43;;;;;;;14.07;3.92;;;;;;;13.91;100.00;101444.91;5249863;28;20115;-65
2022/10/25 10:17:17;;;;;;;10.10;3.90;;;;;;;13.89;100.00;101452.25;5245185;28;20029;-65
2022/10/25 10:20:09;;;;;;;9.15;3.40;;;;;;;13.99;100.00;101452.34;5245681;28;20021;-65
2022/10/25 10:22:51;;;;;;;11.27;3.15;;;;;;;13.96;100.00;101452.59;5254373;28;20044;-65
2022/10/25 10:25:25;;;;;;;10.45;3.53;;;;;;;13.98;100.00;101452.47;5250603;28;20494;-64
2022/10/25 10:27:57;;;;;;;11.63;3.70;;;;;;;13.97;100.00;101456.13;5257237;28;20112;-65
2022/10/25 10:30:30;;;;;;;10.95;3.70;;;;;;;13.96;100.00;101462.47;5253381;28;20025;-65
2022/10/25 10:33:02;;;;;;;8.80;3.95;;;;;;;13.99;100.00;101465.75;5260802;28;20104;-65
2022/10/25 10:35:37;;;;;;;11.55;3.72;;;;;;;14.03;100.00;101456.47;5255098;28;20535;-65
2022/10/25 10:38:27;;;;;;;11.18;3.63;;;;;;;14.01;100.00;101457.59;5259909;28;20033;-65
2022/10/25 10:41:14;;;;;;;12.70;3.55;;;;;;;14.03;100.00;101463.69;5260422;28;20079;-65
2022/10/25 10:43:45;;;;;;;8.20;3.63;;;;;;;14.06;100.00;101460.75;5260282;28;20025;-65
2022/10/25 10:46:23;;;;;;;19.92;6.22;;;;;;;14.08;100.00;101461.47;5258533;28;20434;-65
2022/10/25 10:48:57;;;;;;;16.55;5.00;;;;;;;14.17;100.00;101470.59;5257999;28;20037;-65
2022/10/25 10:51:37;;;;;;;;;;;;;;;14.20;100.00;101462.31;5259448;28;20041;-65
2022/10/25 10:54:12;;;;;;;9.65;3.20;;;;;;;14.28;100.00;101463.38;5253932;28;20416;-66
2022/10/25 10:56:52;;;;;;;10.30;3.38;;;;;;;14.35;100.00;101463.72;5258225;28;20037;-65
2022/10/25 10:59:54;;;;;;;8.43;3.08;;;;;;;14.30;100.00;101452.50;5259927;28;20534;-65
2022/10/25 11:02:41;;;;;;;10.00;3.00;;;;;;;14.39;100.00;101462.50;5258638;28;20020;-65
2022/10/25 11:05:27;;;;;;;11.68;3.40;;;;;;;14.47;100.00;101460.00;5253375;28;20032;-65
2022/10/25 11:08:18;;;;;;;11.73;3.45;;;;;;;14.54;100.00;101463.06;5260730;28;20048;-65
2022/10/25 11:10:49;;;;;;;9.57;3.00;;;;;;;14.51;100.00;101465.97;5255332;28;20056;-65
2022/10/25 11:13:24;;;;;;;8.20;3.05;;;;;;;14.55;100.00;101466.59;5259630;28;20116;-66
2022/10/25 11:16:02;;;;;;;7.78;2.92;;;;;;;14.64;100.00;101460.47;5248534;28;20029;-65
2022/10/25 11:18:42;;;;;;;11.05;3.42;;;;;;;14.69;100.00;101456.44;5258694;28;20029;-65
2022/10/25 11:21:31;;;;;;;13.02;3.58;;;;;;;14.67;100.00;101466.44;5260059;28;20111;-65
2022/10/25 11:24:17;;;;;;;10.93;3.60;;;;;;;14.71;100.00;101464.38;5253326;28;20111;-65
2022/10/25 11:27:01;;;;;;;10.73;3.47;;;;;;;14.76;100.00;101453.22;5254254;28;20029;-65
2022/10/25 11:29:53;;;;;;;9.10;3.10;;;;;;;14.75;100.00;101465.81;5250924;28;20036;-67
2022/10/25 11:32:44;;;;;;;12.90;3.90;;;;;;;14.76;100.00;101463.97;5258024;28;20116;-65
2022/10/25 11:35:47;;;;;;;8.68;3.00;;;;;;;14.79;100.00;101475.31;5259399;28;20406;-65
2022/10/25 11:38:31;;;;;;;9.82;2.97;;;;;;;14.80;100.00;101465.41;5259632;28;20017;-65
2022/10/25 11:41:25;;;;;;;9.90;2.83;;;;;;;14.79;100.00;101463.72;5256866;28;20394;-65
2022/10/25 11:44:15;;;;;;;7.05;2.25;;;;;;;14.78;100.00;101456.63;5252471;28;20086;-65
2022/10/25 11:47:08;;;;;;;9.27;3.03;;;;;;;14.81;100.00;101465.28;5254065;28;20025;-65
2022/10/25 11:49:54;;;;;;;9.60;2.28;;;;;;;14.85;100.00;101450.59;5257518;28;20024;-65
2022/10/25 11:52:39;;;;;;;7.25;2.38;;;;;;;14.89;100.00;101453.88;5259418;28;20082;-65